Springcreek, Louisiana
Current Conditions -  °F | °C
As of 1:53 PM on Friday 21 Nov 2014 (Local Time) from KMCB Reporting Station
Scattered Clouds Scattered Clouds  
Wind Chill: 69°   Ceiling: Unl
Heat Index: 69°   Visibility: 10mi
Dew Point: 46°   Wind: 9mph
Humidity: 44%   Direction: 130°SE
Pressure: 30.24"   Gusts: NA
Location:  30.881°N, 90.466°W
Report Text: KMCB 211953Z AUTO 13008KT 10SM FEW048 SCT100 21/08 A3024 RMK AO2 SLP237 T02060078
Loading
Personal Weather Stations






























Interactive Weather Map New forecast layout! Learn more

10-Day Weather Forecast

Advertisements
Track Severe Weather on mobile